sensor_id;sensor_type;location;lat;lon;timestamp;pressure;altitude;pressure_sealevel;temperature;humidity
56950;BME280;74437;50.080;19.924;2024-03-08T00:32:12;99687.03;;;-0.16;77.00
56950;BME280;74437;50.080;19.924;2024-03-08T00:34:38;99684.84;;;-0.12;77.46
56950;BME280;74437;50.080;19.924;2024-03-08T00:37:03;99686.03;;;-0.14;76.94
56950;BME280;74437;50.080;19.924;2024-03-08T00:39:29;99647.97;;;-0.41;77.26
56950;BME280;74437;50.080;19.924;2024-03-08T00:41:54;99655.16;;;-0.34;77.16
56950;BME280;74437;50.080;19.924;2024-03-08T00:44:19;99683.50;;;-0.16;76.37
56950;BME280;74437;50.080;19.924;2024-03-08T00:46:45;99687.69;;;-0.13;76.50
56950;BME280;74437;50.080;19.924;2024-03-08T00:49:10;99672.84;;;-0.16;76.90
56950;BME280;74437;50.080;19.924;2024-03-08T00:51:37;99683.84;;;-0.11;76.93
56950;BME280;74437;50.080;19.924;2024-03-08T00:54:03;99687.19;;;-0.09;77.09
56950;BME280;74437;50.080;19.924;2024-03-08T00:56:28;99689.03;;;-0.09;75.62
56950;BME280;74437;50.080;19.924;2024-03-08T00:58:53;99674.50;;;-0.15;75.66
56950;BME280;74437;50.080;19.924;2024-03-08T01:01:19;99684.19;;;-0.14;75.67
56950;BME280;74437;50.080;19.924;2024-03-08T01:03:44;99677.34;;;-0.17;75.97
56950;BME280;74437;50.080;19.924;2024-03-08T01:06:09;99646.97;;;-0.32;76.38
56950;BME280;74437;50.080;19.924;2024-03-08T01:08:36;99635.81;;;-0.36;76.28
56950;BME280;74437;50.080;19.924;2024-03-08T01:11:04;99679.72;;;-0.05;76.15
56950;BME280;74437;50.080;19.924;2024-03-08T01:13:30;99632.50;;;-0.38;75.95
56950;BME280;74437;50.080;19.924;2024-03-08T01:15:55;99675.53;;;-0.08;75.65
56950;BME280;74437;50.080;19.924;2024-03-08T01:18:20;99668.38;;;-0.07;76.82
56950;BME280;74437;50.080;19.924;2024-03-08T01:20:46;99627.84;;;-0.36;75.73
56950;BME280;74437;50.080;19.924;2024-03-08T01:23:11;99668.72;;;-0.10;75.83
56950;BME280;74437;50.080;19.924;2024-03-08T01:25:37;99662.38;;;-0.09;75.70
56950;BME280;74437;50.080;19.924;2024-03-08T01:28:02;99653.72;;;-0.11;76.21
56950;BME280;74437;50.080;19.924;2024-03-08T01:30:28;99657.19;;;-0.11;75.84
56950;BME280;74437;50.080;19.924;2024-03-08T01:32:53;99658.19;;;-0.12;76.02
56950;BME280;74437;50.080;19.924;2024-03-08T01:35:18;99650.88;;;-0.10;76.31
56950;BME280;74437;50.080;19.924;2024-03-08T01:37:44;99655.19;;;-0.09;75.64
56950;BME280;74437;50.080;19.924;2024-03-08T01:40:09;99566.66;;;-0.62;75.54
56950;BME280;74437;50.080;19.924;2024-03-08T01:42:35;99653.19;;;-0.15;75.67
56950;BME280;74437;50.080;19.924;2024-03-08T01:45:05;99647.50;;;-0.20;75.91
56950;BME280;74437;50.080;19.924;2024-03-08T01:47:30;99642.31;;;-0.30;75.99
56950;BME280;74437;50.080;19.924;2024-03-08T01:49:58;99642.31;;;-0.30;75.78
56950;BME280;74437;50.080;19.924;2024-03-08T01:52:25;99649.53;;;-0.22;76.54
56950;BME280;74437;50.080;19.924;2024-03-08T01:54:51;99648.00;;;-0.25;75.48
56950;BME280;74437;50.080;19.924;2024-03-08T01:57:17;99625.16;;;-0.36;76.25
56950;BME280;74437;50.080;19.924;2024-03-08T01:59:42;99642.84;;;-0.26;76.11
56950;BME280;74437;50.080;19.924;2024-03-08T02:02:09;99631.19;;;-0.25;76.96
56950;BME280;74437;50.080;19.924;2024-03-08T02:04:36;99635.22;;;-0.21;76.67
56950;BME280;74437;50.080;19.924;2024-03-08T02:07:03;99639.38;;;-0.19;77.34
56950;BME280;74437;50.080;19.924;2024-03-08T02:09:30;99605.00;;;-0.38;75.53
56950;BME280;74437;50.080;19.924;2024-03-08T02:11:56;99631.19;;;-0.25;76.59
56950;BME280;74437;50.080;19.924;2024-03-08T02:14:22;99595.16;;;-0.46;75.95
56950;BME280;74437;50.080;19.924;2024-03-08T02:16:47;99603.50;;;-0.41;76.05
56950;BME280;74437;50.080;19.924;2024-03-08T02:19:13;99623.66;;;-0.38;75.91
56950;BME280;74437;50.080;19.924;2024-03-08T02:21:38;99627.16;;;-0.38;75.74
56950;BME280;74437;50.080;19.924;2024-03-08T02:24:04;99628.47;;;-0.42;75.84
56950;BME280;74437;50.080;19.924;2024-03-08T02:26:30;99622.47;;;-0.44;75.97
56950;BME280;74437;50.080;19.924;2024-03-08T02:28:56;99624.16;;;-0.43;76.33
56950;BME280;74437;50.080;19.924;2024-03-08T02:31:21;99623.47;;;-0.45;75.77
56950;BME280;74437;50.080;19.924;2024-03-08T02:33:46;99628.97;;;-0.47;76.50
56950;BME280;74437;50.080;19.924;2024-03-08T02:36:12;99616.47;;;-0.46;76.42
56950;BME280;74437;50.080;19.924;2024-03-08T02:38:38;99574.78;;;-0.72;75.97
56950;BME280;74437;50.080;19.924;2024-03-08T02:41:03;99619.31;;;-0.48;76.53
56950;BME280;74437;50.080;19.924;2024-03-08T02:43:29;99619.47;;;-0.49;76.37
56950;BME280;74437;50.080;19.924;2024-03-08T02:45:54;99569.94;;;-0.77;77.02
56950;BME280;74437;50.080;19.924;2024-03-08T02:48:19;99622.47;;;-0.44;77.14
56950;BME280;74437;50.080;19.924;2024-03-08T02:50:46;99566.13;;;-0.74;77.10
56950;BME280;74437;50.080;19.924;2024-03-08T02:53:12;99585.63;;;-0.65;76.68
56950;BME280;74437;50.080;19.924;2024-03-08T02:55:38;99626.00;;;-0.43;76.45
56950;BME280;74437;50.080;19.924;2024-03-08T02:58:04;99583.81;;;-0.65;76.12
56950;BME280;74437;50.080;19.924;2024-03-08T03:00:30;99629.47;;;-0.43;76.50
56950;BME280;74437;50.080;19.924;2024-03-08T03:02:58;99626.00;;;-0.43;76.12
56950;BME280;74437;50.080;19.924;2024-03-08T03:05:24;99608.66;;;-0.48;76.53
56950;BME280;74437;50.080;19.924;2024-03-08T03:07:50;99627.00;;;-0.44;76.05
56950;BME280;74437;50.080;19.924;2024-03-08T03:10:18;99577.44;;;-0.72;76.88
56950;BME280;74437;50.080;19.924;2024-03-08T03:12:45;99621.66;;;-0.44;76.27
56950;BME280;74437;50.080;19.924;2024-03-08T03:15:11;99540.41;;;-1.00;76.95
56950;BME280;74437;50.080;19.924;2024-03-08T03:17:38;99623.16;;;-0.42;77.09
56950;BME280;74437;50.080;19.924;2024-03-08T03:20:07;99620.13;;;-0.47;77.12
56950;BME280;74437;50.080;19.924;2024-03-08T03:22:40;99625.47;;;-0.47;76.80
56950;BME280;74437;50.080;19.924;2024-03-08T03:25:12;99624.66;;;-0.48;77.02
56950;BME280;74437;50.080;19.924;2024-03-08T03:27:37;99637.78;;;-0.46;77.27
56950;BME280;74437;50.080;19.924;2024-03-08T03:30:04;99550.91;;;-0.98;75.96
56950;BME280;74437;50.080;19.924;2024-03-08T03:32:49;99590.72;;;-0.80;76.28
56950;BME280;74437;50.080;19.924;2024-03-08T03:35:32;99613.44;;;-0.68;77.04
56950;BME280;74437;50.080;19.924;2024-03-08T03:37:57;99623.25;;;-0.60;76.71
56950;BME280;74437;50.080;19.924;2024-03-08T03:40:36;99620.09;;;-0.64;76.33
56950;BME280;74437;50.080;19.924;2024-03-08T03:43:02;99611.91;;;-0.70;77.20
56950;BME280;74437;50.080;19.924;2024-03-08T03:45:28;99627.41;;;-0.66;76.73
56950;BME280;74437;50.080;19.924;2024-03-08T03:47:54;99635.72;;;-0.69;76.77
56950;BME280;74437;50.080;19.924;2024-03-08T03:50:20;99625.22;;;-0.70;77.39
56950;BME280;74437;50.080;19.924;2024-03-08T03:52:48;99623.72;;;-0.73;76.90
56950;BME280;74437;50.080;19.924;2024-03-08T03:55:14;99624.72;;;-0.74;77.01
56950;BME280;74437;50.080;19.924;2024-03-08T03:57:40;99619.06;;;-0.71;77.07
56950;BME280;74437;50.080;19.924;2024-03-08T04:00:06;99614.56;;;-0.70;77.91
56950;BME280;74437;50.080;19.924;2024-03-08T04:02:35;99570.56;;;-0.91;77.85
56950;BME280;74437;50.080;19.924;2024-03-08T04:05:01;99608.09;;;-0.68;78.02
56950;BME280;74437;50.080;19.924;2024-03-08T04:07:27;99553.25;;;-0.95;77.62
56950;BME280;74437;50.080;19.924;2024-03-08T04:09:52;99609.94;;;-0.60;78.28
56950;BME280;74437;50.080;19.924;2024-03-08T04:12:17;99603.13;;;-0.63;78.47
56950;BME280;74437;50.080;19.924;2024-03-08T04:14:43;99607.47;;;-0.62;78.05
56950;BME280;74437;50.080;19.924;2024-03-08T04:17:09;99608.44;;;-0.54;78.74
56950;BME280;74437;50.080;19.924;2024-03-08T04:19:38;99603.97;;;-0.54;77.78
56950;BME280;74437;50.080;19.924;2024-03-08T04:22:03;99598.78;;;-0.64;77.10
56950;BME280;74437;50.080;19.924;2024-03-08T04:24:28;99599.75;;;-0.73;77.53
56950;BME280;74437;50.080;19.924;2024-03-08T04:26:55;99617.72;;;-0.75;77.46
56950;BME280;74437;50.080;19.924;2024-03-08T04:29:21;99563.81;;;-1.12;77.69
56950;BME280;74437;50.080;19.924;2024-03-08T04:31:47;99616.00;;;-0.84;77.97
56950;BME280;74437;50.080;19.924;2024-03-08T04:34:12;99607.84;;;-0.91;78.40
56950;BME280;74437;50.080;19.924;2024-03-08T04:36:38;99583.47;;;-1.05;78.20
56950;BME280;74437;50.080;19.924;2024-03-08T04:39:03;99602.19;;;-0.88;78.47
56950;BME280;74437;50.080;19.924;2024-03-08T04:41:28;99611.72;;;-0.77;78.26
56950;BME280;74437;50.080;19.924;2024-03-08T04:43:56;99613.22;;;-0.75;78.39
56950;BME280;74437;50.080;19.924;2024-03-08T04:46:23;99599.03;;;-0.83;78.90
56950;BME280;74437;50.080;19.924;2024-03-08T04:48:48;99616.88;;;-0.76;78.87
56950;BME280;74437;50.080;19.924;2024-03-08T04:51:14;99617.88;;;-0.77;78.49
56950;BME280;74437;50.080;19.924;2024-03-08T04:53:40;99619.84;;;-0.79;78.93
56950;BME280;74437;50.080;19.924;2024-03-08T04:56:06;99621.69;;;-0.79;79.19
56950;BME280;74437;50.080;19.924;2024-03-08T04:58:33;99567.59;;;-1.23;79.10
56950;BME280;74437;50.080;19.924;2024-03-08T05:01:01;99623.19;;;-0.85;78.22
56950;BME280;74437;50.080;19.924;2024-03-08T05:03:26;99613.63;;;-0.96;78.62
56950;BME280;74437;50.080;19.924;2024-03-08T05:05:52;99627.84;;;-0.87;78.69
56950;BME280;74437;50.080;19.924;2024-03-08T05:08:17;99615.28;;;-0.95;79.16
56950;BME280;74437;50.080;19.924;2024-03-08T05:10:44;99632.66;;;-0.82;79.34
56950;BME280;74437;50.080;19.924;2024-03-08T05:13:09;99622.66;;;-0.88;79.47
56950;BME280;74437;50.080;19.924;2024-03-08T05:15:34;99630.69;;;-0.80;79.26
56950;BME280;74437;50.080;19.924;2024-03-08T05:18:00;99637.16;;;-0.83;79.02
56950;BME280;74437;50.080;19.924;2024-03-08T05:20:25;99629.63;;;-0.87;78.70
56950;BME280;74437;50.080;19.924;2024-03-08T05:22:51;99630.50;;;-0.87;79.74
56950;BME280;74437;50.080;19.924;2024-03-08T05:25:17;99628.28;;;-0.92;79.32
56950;BME280;74437;50.080;19.924;2024-03-08T05:27:42;99632.56;;;-0.99;78.87
56950;BME280;74437;50.080;19.924;2024-03-08T05:30:08;99617.56;;;-1.08;78.70
56950;BME280;74437;50.080;19.924;2024-03-08T05:32:40;99630.25;;;-1.02;79.36
56950;BME280;74437;50.080;19.924;2024-03-08T05:35:05;99621.22;;;-1.09;79.15
56950;BME280;74437;50.080;19.924;2024-03-08T05:37:32;99610.72;;;-1.11;79.82
56950;BME280;74437;50.080;19.924;2024-03-08T05:39:57;99623.41;;;-1.05;79.07
56950;BME280;74437;50.080;19.924;2024-03-08T05:42:23;99594.88;;;-1.21;79.79
56950;BME280;74437;50.080;19.924;2024-03-08T05:44:48;99587.88;;;-1.22;80.33
56950;BME280;74437;50.080;19.924;2024-03-08T05:47:14;99628.28;;;-0.92;79.61
56950;BME280;74437;50.080;19.924;2024-03-08T05:49:41;99541.19;;;-1.42;79.34
56950;BME280;74437;50.080;19.924;2024-03-08T05:52:09;99633.66;;;-0.83;79.93
56950;BME280;74437;50.080;19.924;2024-03-08T05:54:34;99638.00;;;-0.82;79.10
56950;BME280;74437;50.080;19.924;2024-03-08T05:57:01;99630.34;;;-0.77;79.63
56950;BME280;74437;50.080;19.924;2024-03-08T05:59:26;99628.88;;;-0.71;80.28
56950;BME280;74437;50.080;19.924;2024-03-08T06:01:52;99611.34;;;-0.82;78.96
56950;BME280;74437;50.080;19.924;2024-03-08T06:04:17;99608.03;;;-0.84;79.38
56950;BME280;74437;50.080;19.924;2024-03-08T06:06:43;99630.75;;;-0.64;78.82
56950;BME280;74437;50.080;19.924;2024-03-08T06:09:08;99628.41;;;-0.67;79.09
56950;BME280;74437;50.080;19.924;2024-03-08T06:11:41;99649.81;;;-0.77;78.88
56950;BME280;74437;50.080;19.924;2024-03-08T06:14:07;99637.13;;;-0.91;78.80
56950;BME280;74437;50.080;19.924;2024-03-08T06:16:33;99639.94;;;-0.93;79.13
56950;BME280;74437;50.080;19.924;2024-03-08T06:18:58;99640.94;;;-0.94;79.13
56950;BME280;74437;50.080;19.924;2024-03-08T06:21:24;99623.56;;;-1.06;79.39
56950;BME280;74437;50.080;19.924;2024-03-08T06:23:53;99638.25;;;-0.94;79.47
56950;BME280;74437;50.080;19.924;2024-03-08T06:26:19;99638.94;;;-0.92;78.92
56950;BME280;74437;50.080;19.924;2024-03-08T06:28:44;99631.91;;;-1.01;78.50
56950;BME280;74437;50.080;19.924;2024-03-08T06:31:10;99608.19;;;-1.21;79.33
56950;BME280;74437;50.080;19.924;2024-03-08T06:33:36;99627.38;;;-1.09;78.89
56950;BME280;74437;50.080;19.924;2024-03-08T06:36:01;99635.59;;;-0.94;79.90
56950;BME280;74437;50.080;19.924;2024-03-08T06:38:26;99631.63;;;-0.90;79.31
56950;BME280;74437;50.080;19.924;2024-03-08T06:40:52;99603.47;;;-1.00;79.34
56950;BME280;74437;50.080;19.924;2024-03-08T06:43:18;99636.00;;;-0.80;78.64
56950;BME280;74437;50.080;19.924;2024-03-08T06:45:44;99625.47;;;-0.90;79.32
56950;BME280;74437;50.080;19.924;2024-03-08T06:48:18;99604.28;;;-1.08;78.67
56950;BME280;74437;50.080;19.924;2024-03-08T06:50:45;99552.19;;;-1.45;79.16
56950;BME280;74437;50.080;19.924;2024-03-08T06:53:11;99622.06;;;-1.09;79.78
56950;BME280;74437;50.080;19.924;2024-03-08T06:55:38;99589.38;;;-1.27;79.64
56950;BME280;74437;50.080;19.924;2024-03-08T06:58:04;99638.78;;;-0.90;79.83
56950;BME280;74437;50.080;19.924;2024-03-08T07:00:29;99631.31;;;-0.86;79.94
56950;BME280;74437;50.080;19.924;2024-03-08T07:02:56;99641.31;;;-0.80;79.56
56950;BME280;74437;50.080;19.924;2024-03-08T07:05:22;99628.81;;;-0.88;79.06
56950;BME280;74437;50.080;19.924;2024-03-08T07:07:49;99602.59;;;-1.09;78.54
56950;BME280;74437;50.080;19.924;2024-03-08T07:10:16;99646.34;;;-0.77;79.16
56950;BME280;74437;50.080;19.924;2024-03-08T07:12:41;99591.28;;;-1.11;78.50
56950;BME280;74437;50.080;19.924;2024-03-08T07:15:08;99585.91;;;-1.20;78.42
56950;BME280;74437;50.080;19.924;2024-03-08T07:17:33;99641.66;;;-0.83;78.29
56950;BME280;74437;50.080;19.924;2024-03-08T07:20:00;99639.16;;;-0.85;79.27
56950;BME280;74437;50.080;19.924;2024-03-08T07:22:32;99641.31;;;-0.80;79.12
56950;BME280;74437;50.080;19.924;2024-03-08T07:24:57;99630.00;;;-0.82;78.70
56950;BME280;74437;50.080;19.924;2024-03-08T07:27:41;99642.38;;;-0.73;79.12
56950;BME280;74437;50.080;19.924;2024-03-08T07:30:07;99638.72;;;-0.72;78.06
56950;BME280;74437;50.080;19.924;2024-03-08T07:32:35;99649.72;;;-0.67;78.04
56950;BME280;74437;50.080;19.924;2024-03-08T07:35:00;99646.38;;;-0.69;77.61
56950;BME280;74437;50.080;19.924;2024-03-08T07:37:27;99608.28;;;-0.96;77.05
56950;BME280;74437;50.080;19.924;2024-03-08T07:39:52;99620.50;;;-0.85;77.36
56950;BME280;74437;50.080;19.924;2024-03-08T07:42:18;99644.03;;;-0.72;76.97
56950;BME280;74437;50.080;19.924;2024-03-08T07:44:43;99645.16;;;-0.75;77.74
56950;BME280;74437;50.080;19.924;2024-03-08T07:47:09;99637.03;;;-0.73;77.16
56950;BME280;74437;50.080;19.924;2024-03-08T07:49:35;99589.84;;;-0.97;77.29
56950;BME280;74437;50.080;19.924;2024-03-08T07:52:02;99636.91;;;-0.63;77.13
56950;BME280;74437;50.080;19.924;2024-03-08T07:54:29;99589.38;;;-0.84;76.51
56950;BME280;74437;50.080;19.924;2024-03-08T07:56:54;99614.56;;;-0.70;76.40
56950;BME280;74437;50.080;19.924;2024-03-08T07:59:20;99621.59;;;-0.61;76.13
56950;BME280;74437;50.080;19.924;2024-03-08T08:01:46;99575.22;;;-0.93;75.72
56950;BME280;74437;50.080;19.924;2024-03-08T08:04:12;99622.44;;;-0.52;76.51
56950;BME280;74437;50.080;19.924;2024-03-08T08:06:40;99626.50;;;-0.40;76.39
56950;BME280;74437;50.080;19.924;2024-03-08T08:09:08;99632.00;;;-0.33;75.54
56950;BME280;74437;50.080;19.924;2024-03-08T08:11:42;99635.44;;;-0.49;75.34
56950;BME280;74437;50.080;19.924;2024-03-08T08:14:09;99600.97;;;-0.59;75.70
56950;BME280;74437;50.080;19.924;2024-03-08T08:16:35;99632.00;;;-0.33;75.70
56950;BME280;74437;50.080;19.924;2024-03-08T08:19:02;99618.50;;;-0.32;75.28
56950;BME280;74437;50.080;19.924;2024-03-08T08:21:33;99621.69;;;-0.20;75.49
56950;BME280;74437;50.080;19.924;2024-03-08T08:23:58;99618.84;;;-0.18;74.66
56950;BME280;74437;50.080;19.924;2024-03-08T08:26:24;99622.56;;;-0.03;74.32
56950;BME280;74437;50.080;19.924;2024-03-08T08:28:51;99635.88;;;-0.11;75.02
56950;BME280;74437;50.080;19.924;2024-03-08T08:31:18;99570.34;;;-0.38;73.81
56950;BME280;74437;50.080;19.924;2024-03-08T08:33:44;99629.22;;;0.02;74.08
56950;BME280;74437;50.080;19.924;2024-03-08T08:36:10;99627.56;;;0.01;73.68
56950;BME280;74437;50.080;19.924;2024-03-08T08:38:35;99632.56;;;0.04;73.73
56950;BME280;74437;50.080;19.924;2024-03-08T08:41:00;99624.41;;;0.13;73.96
56950;BME280;74437;50.080;19.924;2024-03-08T08:43:27;99623.91;;;0.18;73.91
56950;BME280;74437;50.080;19.924;2024-03-08T08:45:53;99626.91;;;0.15;73.49
56950;BME280;74437;50.080;19.924;2024-03-08T08:48:20;99631.91;;;0.35;73.50
56950;BME280;74437;50.080;19.924;2024-03-08T08:50:45;99608.56;;;0.28;72.05
56950;BME280;74437;50.080;19.924;2024-03-08T08:53:12;99623.72;;;0.44;72.65
56950;BME280;74437;50.080;19.924;2024-03-08T08:55:40;99633.91;;;0.49;72.53
56950;BME280;74437;50.080;19.924;2024-03-08T08:58:05;99626.09;;;0.39;72.63
56950;BME280;74437;50.080;19.924;2024-03-08T09:00:32;99605.88;;;0.28;71.81
56950;BME280;74437;50.080;19.924;2024-03-08T09:02:59;99635.56;;;0.50;71.85
56950;BME280;74437;50.080;19.924;2024-03-08T09:05:25;99605.03;;;0.44;71.62
56950;BME280;74437;50.080;19.924;2024-03-08T09:07:51;99630.22;;;0.58;70.83
56950;BME280;74437;50.080;19.924;2024-03-08T09:10:18;99604.88;;;0.46;70.93
56950;BME280;74437;50.080;19.924;2024-03-08T09:12:44;99620.91;;;0.54;71.41
56950;BME280;74437;50.080;19.924;2024-03-08T09:15:09;99627.22;;;0.53;70.63
56950;BME280;74437;50.080;19.924;2024-03-08T09:17:36;99615.03;;;0.59;70.49
56950;BME280;74437;50.080;19.924;2024-03-08T09:20:05;99608.16;;;0.73;69.94
56950;BME280;74437;50.080;19.924;2024-03-08T09:22:31;99623.47;;;0.96;70.38
56950;BME280;74437;50.080;19.924;2024-03-08T09:24:57;99633.16;;;0.97;69.67
56950;BME280;74437;50.080;19.924;2024-03-08T09:27:22;99627.88;;;0.64;69.21
56950;BME280;74437;50.080;19.924;2024-03-08T09:29:48;99635.56;;;0.42;69.75
56950;BME280;74437;50.080;19.924;2024-03-08T09:32:14;99566.22;;;0.09;70.52
56950;BME280;74437;50.080;19.924;2024-03-08T09:34:39;99498.38;;;0.03;70.03
56950;BME280;74437;50.080;19.924;2024-03-08T09:37:05;99565.41;;;1.29;67.32
56950;BME280;74437;50.080;19.924;2024-03-08T09:39:30;99597.31;;;2.47;64.39
56950;BME280;74437;50.080;19.924;2024-03-08T09:41:56;99596.16;;;3.10;62.20
56950;BME280;74437;50.080;19.924;2024-03-08T09:44:22;99584.91;;;3.15;61.40
56950;BME280;74437;50.080;19.924;2024-03-08T09:46:53;99591.97;;;3.96;60.45
56950;BME280;74437;50.080;19.924;2024-03-08T09:49:19;99502.94;;;3.85;59.23
56950;BME280;74437;50.080;19.924;2024-03-08T09:51:45;99532.81;;;4.96;58.61
56950;BME280;74437;50.080;19.924;2024-03-08T09:54:11;99565.44;;;4.86;56.24
56950;BME280;74437;50.080;19.924;2024-03-08T09:56:38;99613.47;;;4.17;59.73
56950;BME280;74437;50.080;19.924;2024-03-08T09:59:06;99574.28;;;2.76;61.16
56950;BME280;74437;50.080;19.924;2024-03-08T10:01:51;99581.84;;;1.96;64.02
56950;BME280;74437;50.080;19.924;2024-03-08T10:04:17;99601.63;;;2.33;64.49
56950;BME280;74437;50.080;19.924;2024-03-08T10:06:45;99595.47;;;3.75;60.38
56950;BME280;74437;50.080;19.924;2024-03-08T10:09:12;99515.19;;;3.95;58.30
56950;BME280;74437;50.080;19.924;2024-03-08T10:11:40;99598.94;;;4.12;60.02
56950;BME280;74437;50.080;19.924;2024-03-08T10:14:05;99559.84;;;4.88;55.67
56950;BME280;74437;50.080;19.924;2024-03-08T10:16:32;99596.47;;;5.38;56.14
56950;BME280;74437;50.080;19.924;2024-03-08T10:18:57;99587.00;;;5.42;55.57
56950;BME280;74437;50.080;19.924;2024-03-08T10:21:23;99549.16;;;5.63;53.70
56950;BME280;74437;50.080;19.924;2024-03-08T10:23:48;99583.00;;;6.87;52.67
56950;BME280;74437;50.080;19.924;2024-03-08T10:26:16;99546.13;;;6.61;51.31
56950;BME280;74437;50.080;19.924;2024-03-08T10:29:03;99545.50;;;5.98;51.20
56950;BME280;74437;50.080;19.924;2024-03-08T10:31:29;99593.16;;;6.85;50.99
56950;BME280;74437;50.080;19.924;2024-03-08T10:33:58;99596.72;;;6.52;50.93
56950;BME280;74437;50.080;19.924;2024-03-08T10:36:23;99542.41;;;6.48;51.59
56950;BME280;74437;50.080;19.924;2024-03-08T10:38:51;99590.69;;;6.23;51.17
56950;BME280;74437;50.080;19.924;2024-03-08T10:41:18;99582.53;;;7.56;49.79
56950;BME280;74437;50.080;19.924;2024-03-08T10:49:08;99416.25;;;7.55;48.00
56950;BME280;74437;50.080;19.924;2024-03-08T10:51:38;99566.34;;;7.56;49.30
56950;BME280;74437;50.080;19.924;2024-03-08T10:54:09;99548.72;;;7.92;48.23
56950;BME280;74437;50.080;19.924;2024-03-08T10:56:38;99561.38;;;7.07;50.06
56950;BME280;74437;50.080;19.924;2024-03-08T10:59:13;99528.13;;;7.59;49.41
56950;BME280;74437;50.080;19.924;2024-03-08T11:01:39;99492.53;;;6.98;50.38
56950;BME280;74437;50.080;19.924;2024-03-08T11:04:05;99450.06;;;6.07;50.84
56950;BME280;74437;50.080;19.924;2024-03-08T11:06:42;99542.75;;;5.58;54.11
56950;BME280;74437;50.080;19.924;2024-03-08T11:09:30;99472.00;;;4.18;56.82
56950;BME280;74437;50.080;19.924;2024-03-08T11:12:27;99554.16;;;4.12;58.59
56950;BME280;74437;50.080;19.924;2024-03-08T11:14:56;99516.78;;;3.67;59.79
56950;BME280;74437;50.080;19.924;2024-03-08T11:19:55;99516.03;;;3.73;59.66
56950;BME280;74437;50.080;19.924;2024-03-08T11:22:28;99539.19;;;4.03;59.02
56950;BME280;74437;50.080;19.924;2024-03-08T11:25:02;99491.88;;;3.95;59.13
56950;BME280;74437;50.080;19.924;2024-03-08T11:27:31;99536.25;;;4.20;58.24
56950;BME280;74437;50.080;19.924;2024-03-08T11:30:01;99536.91;;;3.56;60.27
56950;BME280;74437;50.080;19.924;2024-03-08T11:32:35;99521.06;;;3.62;60.50
56950;BME280;74437;50.080;19.924;2024-03-08T11:35:00;99462.09;;;3.03;60.76
56950;BME280;74437;50.080;19.924;2024-03-08T11:37:34;99532.50;;;3.49;59.61
56950;BME280;74437;50.080;19.924;2024-03-08T11:40:02;99485.31;;;3.33;60.04
56950;BME280;74437;50.080;19.924;2024-03-08T11:42:37;99523.75;;;3.62;59.61
56950;BME280;74437;50.080;19.924;2024-03-08T11:45:08;99457.59;;;3.25;59.95
56950;BME280;74437;50.080;19.924;2024-03-08T11:47:35;99457.97;;;3.22;60.30
56950;BME280;74437;50.080;19.924;2024-03-08T11:50:00;99516.66;;;3.76;61.06
56950;BME280;74437;50.080;19.924;2024-03-08T11:52:28;99525.25;;;3.64;60.38
56950;BME280;74437;50.080;19.924;2024-03-08T11:54:54;99485.41;;;3.61;60.11
56950;BME280;74437;50.080;19.924;2024-03-08T11:57:23;99524.34;;;4.00;59.83
56950;BME280;74437;50.080;19.924;2024-03-08T11:59:55;99510.88;;;4.22;59.29
56950;BME280;74437;50.080;19.924;2024-03-08T12:02:26;99507.50;;;4.42;58.18
56950;BME280;74437;50.080;19.924;2024-03-08T12:04:59;99519.41;;;4.04;59.12
56950;BME280;74437;50.080;19.924;2024-03-08T12:07:26;99464.19;;;3.45;59.63
56950;BME280;74437;50.080;19.924;2024-03-08T12:10:18;99504.59;;;3.65;59.61
56950;BME280;74437;50.080;19.924;2024-03-08T12:12:49;99500.78;;;3.74;60.04
56950;BME280;74437;50.080;19.924;2024-03-08T12:15:17;99431.59;;;3.69;60.21
56950;BME280;74437;50.080;19.924;2024-03-08T12:17:43;99501.09;;;4.14;59.01
56950;BME280;74437;50.080;19.924;2024-03-08T12:20:20;99494.47;;;3.88;59.42
56950;BME280;74437;50.080;19.924;2024-03-08T12:22:49;99444.31;;;3.61;59.77
56950;BME280;74437;50.080;19.924;2024-03-08T12:25:17;99490.56;;;4.13;59.98
56950;BME280;74437;50.080;19.924;2024-03-08T12:27:43;99418.19;;;3.98;59.74
56950;BME280;74437;50.080;19.924;2024-03-08T12:30:19;99457.22;;;4.64;60.39
56950;BME280;74437;50.080;19.924;2024-03-08T12:32:54;99484.50;;;5.16;60.00
56950;BME280;74437;50.080;19.924;2024-03-08T12:35:23;99435.34;;;4.67;57.58
56950;BME280;74437;50.080;19.924;2024-03-08T12:37:53;99445.50;;;4.37;58.30
56950;BME280;74437;50.080;19.924;2024-03-08T12:40:32;99454.22;;;4.45;58.49
56950;BME280;74437;50.080;19.924;2024-03-08T12:43:01;99365.31;;;3.92;59.32
56950;BME280;74437;50.080;19.924;2024-03-08T12:45:28;99464.16;;;4.16;59.48
56950;BME280;74437;50.080;19.924;2024-03-08T12:47:54;99480.44;;;4.43;59.29
56950;BME280;74437;50.080;19.924;2024-03-08T12:50:21;99469.63;;;4.65;59.05
56950;BME280;74437;50.080;19.924;2024-03-08T12:52:47;99402.97;;;4.40;60.33
56950;BME280;74437;50.080;19.924;2024-03-08T12:55:13;99440.56;;;4.82;59.03
56950;BME280;74437;50.080;19.924;2024-03-08T12:57:40;99424.69;;;4.45;57.90
56950;BME280;74437;50.080;19.924;2024-03-08T13:00:08;99365.66;;;4.17;57.59
56950;BME280;74437;50.080;19.924;2024-03-08T13:02:38;99452.47;;;4.66;59.30
56950;BME280;74437;50.080;19.924;2024-03-08T13:05:04;99429.88;;;4.47;58.37
56950;BME280;74437;50.080;19.924;2024-03-08T13:07:31;99363.63;;;4.19;58.83
56950;BME280;74437;50.080;19.924;2024-03-08T13:09:57;99417.75;;;4.71;59.09
56950;BME280;74437;50.080;19.924;2024-03-08T13:12:25;99435.41;;;4.87;58.02
56950;BME280;74437;50.080;19.924;2024-03-08T13:14:50;99408.09;;;4.84;58.82
56950;BME280;74437;50.080;19.924;2024-03-08T13:17:16;99422.63;;;4.96;57.84
56950;BME280;74437;50.080;19.924;2024-03-08T13:19:46;99388.06;;;4.86;57.67
56950;BME280;74437;50.080;19.924;2024-03-08T13:22:11;99425.25;;;4.83;57.97
56950;BME280;74437;50.080;19.924;2024-03-08T13:24:42;99428.47;;;4.58;58.71
56950;BME280;74437;50.080;19.924;2024-03-08T13:27:09;99410.84;;;4.49;59.04
56950;BME280;74437;50.080;19.924;2024-03-08T13:29:48;99427.88;;;4.69;59.25
56950;BME280;74437;50.080;19.924;2024-03-08T13:32:15;99423.41;;;4.90;59.27